• Join FlightAware (Why Join?)
  • Login
  • US Flag 
01:43AM EDT


 

Airport Tracker/Info


-or-


 

Live Flight TrackerFlight Track Log ✈ AWI3688 ✈ 01-May-2013 ✈ KALB - KPHL

Flight Track Log - Related Links

Times and Time Zones

All times are in EDT time to prevent confusion due to time zone crossing. See the AWI3688 flight status page for this flight to view local times or setup timezone preferences in your user account.

Time Position Orientation Groundspeed Altitude Reporting Facility
EDT Latitude Longitude Course Direction KTS MPH feet Rate Location/Type
02:23PM 42.7256 -73.8108 219° Southwest 161 185 1,300  Level Boston Center
02:23PM 42.7089 -73.8161 193° South 172 198 2,000 1,980 Climbing Boston Center
02:24PM 42.7061 -73.8811 267° West 230 265 3,700 1,980 Climbing Boston Center
02:25PM 42.7334 -74.2584 270° West  Level FlightAware Approximate
02:25PM 42.7153 -73.9689 278° West 243 280 5,600  Level Boston Center
02:26PM 42.6766 -74.3785 220° Southwest  Level FlightAware Approximate
02:26PM 42.7242 -74.0736 277° West 269 310 7,900  Level Boston Center
02:27PM 42.5901 -74.4758 220° Southwest  Level FlightAware Approximate
02:27PM 42.7350 -74.1842 278° West 297 342 9,900  Level Boston Center
02:28PM 42.5067 -74.5777 219° Southwest  Level FlightAware Approximate
02:28PM 42.7439 -74.2919 276° West 313 360 11,500  Level Boston Center
02:29PM 42.7519 -74.4308 275° West 337 388 14,100 2,220 Climbing Boston Center
02:30PM 42.7603 -74.5442 276° West 342 394 16,000 900 Climbing Boston Center
02:31PM 42.7142 -74.6611 242° Southwest 326 375 16,000  Level Boston Center
02:32PM 42.6200 -74.6861 191° South 299 344 16,000  Level Boston Center
02:33PM 42.5144 -74.7469 203° Southwest 360 414 16,000 -60 Level Boston Center
02:34PM 42.4281 -74.8031 206° Southwest 373 429 15,900 -60 Descending Boston Center
02:35PM 42.3328 -74.8667 206° Southwest 378 435 15,900  Level Boston Center
02:37PM 42.1142 -75.0119 206° Southwest 374 430 16,000  Climbing New York Center
02:38PM 42.0239 -75.0897 213° Southwest 388 447 15,900 -60 Descending New York Center
02:39PM 41.9294 -75.1644 210° Southwest 395 455 15,900  Level New York Center
02:40PM 41.8372 -75.2392 211° Southwest 400 460 15,900  Level New York Center
02:41PM 41.7536 -75.3058 211° Southwest 400 460 15,900 -720 Level New York Center
02:42PM 41.6547 -75.3850 211° Southwest 395 455 14,600 -1,380 Descending New York Center
02:43PM 41.5642 -75.4592 212° Southwest 395 455 13,200 -1,320 Descending New York Center
02:44PM 41.4761 -75.5278 210° Southwest 390 449 12,000 -600 Descending New York Center
02:45PM 41.3967 -75.5914 211° Southwest 377 434 12,000  Level New York Center
02:46PM 41.3019 -75.6647 210° Southwest 377 434 12,000  Level New York Center
02:47PM 41.2156 -75.6889 192° South 364 419 12,000  Level New York Center
02:48PM 41.1050 -75.6889 180° South 362 417 12,000  Level New York Center
02:49PM 41.0050 -75.6872 179° South 367 422 12,000  Level New York Center
02:50PM 40.9031 -75.6881 180° South 372 428 12,000  Level New York Center
02:51PM 40.7969 -75.6858 179° South 372 428 12,000  Level New York Center
02:52PM 40.6947 -75.6842 179° South 378 435 12,000  Level New York Center
02:53PM 40.6011 -75.6800 178° South 383 441 12,000 -300 Level New York Center
02:54PM 40.5244 -75.5708 133° Southeast 347 399 11,500 -1,020 Descending New York Center
02:55PM 40.4703 -75.4661 124° Southeast 352 405 10,000 -900 Descending New York Center
02:56PM 40.4039 -75.4044 145° Southeast 316 364 9,800 -840 Descending New York Center
02:57PM 40.3428 -75.3731 159° South 272 313 8,300 -1,560 Descending New York Center
02:58PM 40.2706 -75.4008 196° South 257 296 6,800 -1,200 Descending New York Center
02:59PM 40.1981 -75.4478 206° Southwest 280 322 6,000 -420 Descending New York Center
03:00PM 40.1214 -75.4886 202° Southwest 287 330 6,000  Level New York Center
03:02PM 40.0167 -75.5500 204° Southwest 229 264 6,000  Level Philadelphia TRACON
03:02PM 39.9953 -75.5669 211° Southwest 251 289 6,000  Level New York Center
03:03PM 39.9397 -75.5983 203° Southwest 245 282 6,000 -420 Level New York Center
03:04PM 39.8781 -75.6264 199° South 239 275 5,200 -1,140 Descending New York Center
03:05PM 39.8353 -75.6019 156° South 197 227 3,800 -1,320 Descending New York Center
03:06PM 39.8167 -75.5500 115° Southeast 179 206 3,000 -480 Descending Philadelphia TRACON
03:07PM 39.8167 -75.5000 90° East 174 200 3,000 -300 Level Philadelphia TRACON
03:08PM 39.8333 -75.4333 72° East 172 198 2,400 -600 Descending Philadelphia TRACON